Time;durP1;ratioP1;P1;durP2;ratioP2;P2;SDS_P1;SDS_P2;PMS_P1;PMS_P2;Temp;Humidity;BMP_temperature;BMP_pressure;BME280_temperature;BME280_humidity;BME280_pressure;Samples;Min_cycle;Max_cycle;Signal;HPM_P1;HPM_P2
2021/01/04 06:02:06;;;;;;;23.33;14.95;;;;;;;;;;5086616;28;20361;-61
2021/01/04 06:04:32;;;;;;;23.35;13.13;;;;;;;;;;5068389;28;20111;-61
2021/01/04 06:07:02;;;;;;;27.00;14.00;;;;;;;;;;5081344;28;20520;-59
2021/01/04 06:09:28;;;;;;;24.98;15.05;;;;;;;;;;5079580;28;20020;-60
2021/01/04 06:12:04;;;;;;;24.55;14.07;;;;;;;;;;5086252;28;20024;-61
2021/01/04 06:14:31;;;;;;;25.75;14.73;;;;;;;;;;5083188;28;20025;-58
2021/01/04 06:16:59;;;;;;;22.98;14.63;;;;;;;;;;5067906;28;20025;-61
2021/01/04 06:19:25;;;;;;;25.38;14.55;;;;;;;;;;5086588;28;20567;-63
2021/01/04 06:21:53;;;;;;;30.25;16.20;;;;;;;;;;5081426;28;20481;-58
2021/01/04 06:24:24;;;;;;;26.30;15.60;;;;;;;;;;5081621;28;20020;-61
2021/01/04 06:26:55;;;;;;;26.63;13.48;;;;;;;;;;5081608;28;20115;-60
2021/01/04 06:29:33;;;;;;;23.13;13.55;;;;;;;;;;5083902;28;20687;-61
2021/01/04 06:31:59;;;;;;;25.45;12.85;;;;;;;;;;5085137;28;20417;-60
2021/01/04 06:34:45;;;;;;;25.48;13.38;;;;;;;;;;5074028;28;20039;-60
2021/01/04 06:37:13;;;;;;;22.38;12.90;;;;;;;;;;5082216;28;20040;-60
2021/01/04 06:39:40;;;;;;;25.27;14.32;;;;;;;;;;5080699;28;20544;-60
2021/01/04 06:42:11;;;;;;;27.05;14.77;;;;;;;;;;5084745;28;20032;-59
2021/01/04 06:44:38;;;;;;;30.67;16.75;;;;;;;;;;5080915;28;20043;-60
2021/01/04 06:47:27;;;;;;;29.65;17.58;;;;;;;;;;5069267;28;20548;-60
2021/01/04 06:49:59;;;;;;;28.42;16.58;;;;;;;;;;5066360;28;20501;-60
2021/01/04 06:52:37;;;;;;;26.77;16.60;;;;;;;;;;5082939;28;20196;-60
2021/01/04 06:55:12;;;;;;;27.27;15.57;;;;;;;;;;5072284;28;20082;-60
2021/01/04 06:58:01;;;;;;;31.05;16.95;;;;;;;;;;5077235;28;20036;-60
2021/01/04 07:00:32;;;;;;;31.05;17.55;;;;;;;;;;5079573;28;20074;-60
2021/01/04 07:02:59;;;;;;;30.75;17.63;;;;;;;;;;5066326;28;20036;-59
2021/01/04 07:05:28;;;;;;;32.08;18.65;;;;;;;;;;5067954;28;20046;-60
2021/01/04 07:08:03;;;;;;;31.92;18.85;;;;;;;;;;5070279;28;20024;-59
2021/01/04 07:10:48;;;;;;;31.60;17.58;;;;;;;;;;5072819;28;20531;-60
2021/01/04 07:13:32;;;;;;;30.67;16.80;;;;;;;;;;5072596;28;20436;-59
2021/01/04 07:16:11;;;;;;;29.63;15.90;;;;;;;;;;5070659;28;20031;-59
2021/01/04 07:18:44;;;;;;;31.08;16.25;;;;;;;;;;5070832;28;20458;-59
2021/01/04 07:21:13;;;;;;;36.42;16.77;;;;;;;;;;5070652;28;20036;-60
2021/01/04 07:23:39;;;;;;;24.98;15.23;;;;;;;;;;5067959;28;20100;-59
2021/01/04 07:26:18;;;;;;;25.33;15.70;;;;;;;;;;5071025;28;20098;-58
2021/01/04 07:28:54;;;;;;;25.85;13.45;;;;;;;;;;5071678;28;20024;-59
2021/01/04 07:31:23;;;;;;;32.75;15.82;;;;;;;;;;5071133;28;20040;-58
2021/01/04 07:33:52;;;;;;;27.77;15.35;;;;;;;;;;5070208;28;20024;-58
2021/01/04 07:36:24;;;;;;;28.48;15.98;;;;;;;;;;5070572;28;20024;-60
2021/01/04 07:38:55;;;;;;;28.48;16.20;;;;;;;;;;5070627;28;20027;-60
2021/01/04 07:41:33;;;;;;;27.52;15.02;;;;;;;;;;5068435;28;20059;-59
2021/01/04 07:44:15;;;;;;;29.40;16.33;;;;;;;;;;5070068;28;20473;-59
2021/01/04 07:47:00;;;;;;;30.35;15.85;;;;;;;;;;5069627;28;20040;-60
2021/01/04 07:49:29;;;;;;;26.83;15.90;;;;;;;;;;5071728;28;20513;-58
2021/01/04 07:52:14;;;;;;;29.13;17.42;;;;;;;;;;5069451;28;20055;-59
2021/01/04 07:54:49;;;;;;;32.55;16.20;;;;;;;;;;5069721;28;20492;-60
2021/01/04 07:57:34;;;;;;;30.40;16.75;;;;;;;;;;5068550;28;20035;-59
2021/01/04 08:00:18;;;;;;;30.43;17.23;;;;;;;;;;5068517;28;20040;-59
2021/01/04 08:02:57;;;;;;;31.63;18.83;;;;;;;;;;5069063;28;20279;-58
2021/01/04 08:05:42;;;;;;;36.58;18.92;;;;;;;;;;5069487;28;20032;-59
2021/01/04 08:08:20;;;;;;;28.70;16.55;;;;;;;;;;5067827;28;20029;-59
2021/01/04 08:10:59;;;;;;;30.70;18.65;;;;;;;;;;5070878;28;20040;-59
2021/01/04 08:13:28;;;;;;;36.47;19.20;;;;;;;;;;5070478;28;20111;-59
2021/01/04 08:15:59;;;;;;;34.97;20.20;;;;;;;;;;5069505;28;20405;-59
2021/01/04 08:18:26;;;;;;;37.47;20.13;;;;;;;;;;5065408;28;20028;-59
2021/01/04 08:20:55;;;;;;;30.65;19.00;;;;;;;;;;5061241;28;20161;-59
2021/01/04 08:23:24;;;;;;;39.30;21.38;;;;;;;;;;5066067;28;20056;-59
2021/01/04 08:26:00;;;;;;;36.15;19.58;;;;;;;;;;5068433;28;20058;-59
2021/01/04 08:28:33;;;;;;;39.00;19.73;;;;;;;;;;5067992;28;20095;-59
2021/01/04 08:31:03;;;;;;;34.60;19.27;;;;;;;;;;5068908;28;20051;-59
2021/01/04 08:33:32;;;;;;;32.58;19.73;;;;;;;;;;5069722;28;20433;-59
2021/01/04 08:35:58;;;;;;;35.03;20.05;;;;;;;;;;5066988;28;20033;-59
2021/01/04 08:38:24;;;;;;;46.00;21.90;;;;;;;;;;5068626;28;20013;-59
2021/01/04 08:40:59;;;;;;;38.83;21.27;;;;;;;;;;5067163;28;20066;-59
2021/01/04 08:43:25;;;;;;;;;;;;;;;;;;5070831;28;20099;-57
2021/01/04 08:45:51;;;;;;;34.95;19.83;;;;;;;;;;5066539;28;20318;-59
2021/01/04 08:48:22;;;;;;;39.15;20.92;;;;;;;;;;5066735;28;20086;-59
2021/01/04 08:51:03;;;;;;;40.55;20.80;;;;;;;;;;5067332;28;20021;-58
2021/01/04 08:53:29;;;;;;;38.03;20.40;;;;;;;;;;5067945;28;20417;-59
2021/01/04 08:56:14;;;;;;;44.20;23.15;;;;;;;;;;5066945;28;20028;-58
2021/01/04 08:58:41;;;;;;;44.20;23.02;;;;;;;;;;5068085;28;20111;-59
2021/01/04 09:01:27;;;;;;;36.70;20.92;;;;;;;;;;5068145;28;20124;-59
2021/01/04 09:04:05;;;;;;;39.95;22.08;;;;;;;;;;5058961;28;20098;-59
2021/01/04 09:06:32;;;;;;;39.28;21.17;;;;;;;;;;5068344;28;20132;-59
2021/01/04 09:09:10;;;;;;;41.10;22.92;;;;;;;;;;5066468;28;20033;-59
2021/01/04 09:11:38;;;;;;;37.42;21.05;;;;;;;;;;5067375;28;20150;-59
2021/01/04 09:14:39;;;;;;;34.63;21.15;;;;;;;;;;5069097;28;20032;-59
2021/01/04 09:17:24;;;;;;;36.67;21.60;;;;;;;;;;5026215;28;20043;-59
2021/01/04 09:20:00;;;;;;;35.47;18.87;;;;;;;;;;5026284;28;20087;-59
2021/01/04 09:22:26;;;;;;;33.30;19.20;;;;;;;;;;5028114;28;20291;-59
2021/01/04 09:24:53;;;;;;;33.33;19.13;;;;;;;;;;5021781;28;20037;-59
2021/01/04 09:27:30;;;;;;;32.80;18.42;;;;;;;;;;5018523;28;20036;-59
2021/01/04 09:30:06;;;;;;;33.17;17.92;;;;;;;;;;5016407;28;20084;-59
2021/01/04 09:32:35;;;;;;;35.25;18.15;;;;;;;;;;5024819;28;20045;-59
2021/01/04 09:35:03;;;;;;;34.25;17.85;;;;;;;;;;5025761;28;20037;-59
2021/01/04 09:37:29;;;;;;;31.75;18.80;;;;;;;;;;5024129;28;20033;-59
2021/01/04 09:40:08;;;;;;;35.03;18.83;;;;;;;;;;5021047;28;20061;-58
2021/01/04 09:42:34;;;;;;;31.83;18.85;;;;;;;;;;5020323;28;20042;-60
2021/01/04 09:45:11;;;;;;;30.25;19.08;;;;;;;;;;5018250;28;20041;-58
2021/01/04 09:47:40;;;;;;;35.40;19.63;;;;;;;;;;5020238;28;20042;-58
2021/01/04 09:50:12;;;;;;;38.45;21.10;;;;;;;;;;5013865;28;20025;-58
2021/01/04 09:52:51;;;;;;;36.75;20.65;;;;;;;;;;5054058;28;20084;-58
2021/01/04 09:55:21;;;;;;;36.38;19.52;;;;;;;;;;5058348;28;20174;-58
2021/01/04 09:57:47;;;;;;;43.28;20.77;;;;;;;;;;5068443;28;20120;-58
2021/01/04 10:00:15;;;;;;;38.33;21.05;;;;;;;;;;5067821;28;20045;-59
2021/01/04 10:02:41;;;;;;;46.92;25.42;;;;;;;;;;5067362;28;20111;-59
2021/01/04 10:05:08;;;;;;;48.75;25.88;;;;;;;;;;5068608;28;20032;-59
2021/01/04 10:07:35;;;;;;;44.97;24.25;;;;;;;;;;5069246;28;20557;-59
2021/01/04 10:10:01;;;;;;;43.17;23.95;;;;;;;;;;5067194;28;20020;-59
2021/01/04 10:12:29;;;;;;;100.35;78.88;;;;;;;;;;5059387;28;20029;-58
2021/01/04 10:14:56;;;;;;;49.45;28.35;;;;;;;;;;5054988;28;20025;-59
2021/01/04 10:17:28;;;;;;;49.95;30.58;;;;;;;;;;5067158;28;20033;-59
2021/01/04 10:20:02;;;;;;;49.72;27.63;;;;;;;;;;5053142;28;20044;-58
2021/01/04 10:22:38;;;;;;;41.53;22.85;;;;;;;;;;5065760;28;20538;-59
2021/01/04 10:25:10;;;;;;;34.78;19.77;;;;;;;;;;5069435;28;20513;-59
2021/01/04 10:27:36;;;;;;;45.15;23.02;;;;;;;;;;5057849;28;20512;-59
2021/01/04 10:30:05;;;;;;;30.90;16.27;;;;;;;;;;5055125;28;20387;-59
2021/01/04 10:32:38;;;;;;;21.05;9.73;;;;;;;;;;5053735;28;20123;-59
2021/01/04 10:35:05;;;;;;;15.60;7.43;;;;;;;;;;5052193;28;20037;-59
2021/01/04 10:37:40;;;;;;;14.77;7.43;;;;;;;;;;5059121;28;20032;-59
2021/01/04 10:40:09;;;;;;;18.55;9.80;;;;;;;;;;5059580;28;20037;-59
2021/01/04 10:42:37;;;;;;;9.15;4.72;;;;;;;;;;5058438;28;20223;-60
2021/01/04 10:45:04;;;;;;;11.85;4.50;;;;;;;;;;5061978;28;20025;-59
2021/01/04 10:47:35;;;;;;;9.85;3.30;;;;;;;;;;5071373;28;20505;-60
2021/01/04 10:50:19;;;;;;;7.75;2.30;;;;;;;;;;5070578;28;20043;-59
2021/01/04 10:52:55;;;;;;;13.85;2.55;;;;;;;;;;5069881;28;20024;-58
2021/01/04 10:55:23;;;;;;;6.65;2.08;;;;;;;;;;5071850;28;20042;-58
2021/01/04 10:57:51;;;;;;;13.23;2.60;;;;;;;;;;5068445;28;20029;-59
2021/01/04 11:00:20;;;;;;;10.00;2.10;;;;;;;;;;5063901;28;20056;-59
2021/01/04 11:02:50;;;;;;;6.28;1.52;;;;;;;;;;5070792;28;20529;-58
2021/01/04 11:05:19;;;;;;;6.47;1.70;;;;;;;;;;5055396;28;20017;-58
2021/01/04 11:07:45;;;;;;;12.00;2.22;;;;;;;;;;5069248;28;20042;-58
2021/01/04 11:10:29;;;;;;;7.63;2.30;;;;;;;;;;5071400;28;20398;-59
2021/01/04 11:12:59;;;;;;;7.10;2.40;;;;;;;;;;5068292;28;20050;-61
2021/01/04 11:15:27;;;;;;;11.25;3.00;;;;;;;;;;5063495;28;20440;-59
2021/01/04 11:17:57;;;;;;;8.02;3.03;;;;;;;;;;5058426;28;20029;-59
2021/01/04 11:20:23;;;;;;;9.73;2.65;;;;;;;;;;5056409;28;20146;-58
2021/01/04 11:22:59;;;;;;;10.48;3.03;;;;;;;;;;5056053;28;20036;-58
2021/01/04 11:25:25;;;;;;;12.35;2.70;;;;;;;;;;5057395;28;20055;-58
2021/01/04 11:27:52;;;;;;;10.90;2.22;;;;;;;;;;5058015;28;20100;-59
2021/01/04 11:30:18;;;;;;;9.52;2.53;;;;;;;;;;5058300;28;20506;-59
2021/01/04 11:32:44;;;;;;;10.32;2.90;;;;;;;;;;5058263;28;20032;-59
2021/01/04 11:35:11;;;;;;;12.93;2.50;;;;;;;;;;5054530;28;20804;-60
2021/01/04 11:37:37;;;;;;;11.02;2.50;;;;;;;;;;5056131;28;20028;-60
2021/01/04 11:40:03;;;;;;;11.75;3.42;;;;;;;;;;5057564;28;20098;-60
2021/01/04 11:42:29;;;;;;;6.07;1.80;;;;;;;;;;5056167;28;20028;-59
2021/01/04 11:44:55;;;;;;;7.90;2.17;;;;;;;;;;5057518;28;20628;-59
2021/01/04 11:47:21;;;;;;;8.93;2.65;;;;;;;;;;5055195;28;20599;-59
2021/01/04 11:49:48;;;;;;;10.15;1.83;;;;;;;;;;5070635;28;20432;-59
2021/01/04 11:52:14;;;;;;;8.07;2.28;;;;;;;;;;5070518;28;20060;-59
2021/01/04 11:54:41;;;;;;;7.78;1.77;;;;;;;;;;5069279;28;20170;-59
2021/01/04 11:57:07;;;;;;;8.88;2.08;;;;;;;;;;5070039;28;20043;-59
2021/01/04 11:59:34;;;;;;;7.47;2.08;;;;;;;;;;5069827;28;20397;-59
2021/01/04 12:02:00;;;;;;;14.02;2.28;;;;;;;;;;5069339;28;20045;-59
2021/01/04 12:04:26;;;;;;;6.60;2.28;;;;;;;;;;5070100;28;20027;-59
2021/01/04 12:06:52;;;;;;;11.52;2.50;;;;;;;;;;5069743;28;20070;-59
2021/01/04 12:09:19;;;;;;;12.32;2.40;;;;;;;;;;5069229;28;20074;-59
2021/01/04 12:11:48;;;;;;;8.27;1.67;;;;;;;;;;5069445;28;20390;-58
2021/01/04 12:14:15;;;;;;;11.15;1.85;;;;;;;;;;5067661;28;20474;-61
2021/01/04 12:16:41;;;;;;;11.18;1.83;;;;;;;;;;5070757;28;20028;-62
2021/01/04 12:19:07;;;;;;;10.95;1.70;;;;;;;;;;5070490;28;20035;-59
2021/01/04 12:21:34;;;;;;;11.23;1.70;;;;;;;;;;5066080;28;20036;-61
2021/01/04 12:24:00;;;;;;;6.65;1.85;;;;;;;;;;5068196;28;20409;-62
2021/01/04 12:26:27;;;;;;;10.35;1.90;;;;;;;;;;5068987;28;20033;-62
2021/01/04 12:28:54;;;;;;;7.03;1.63;;;;;;;;;;5068786;28;20583;-58
2021/01/04 12:31:20;;;;;;;8.57;1.77;;;;;;;;;;5070678;28;20025;-58
2021/01/04 12:33:46;;;;;;;8.50;1.42;;;;;;;;;;5072283;28;20063;-58
2021/01/04 12:36:19;;;;;;;13.85;1.80;;;;;;;;;;5068886;28;20016;-58
2021/01/04 12:38:46;;;;;;;23.88;2.42;;;;;;;;;;5067901;28;20024;-58
2021/01/04 12:41:12;;;;;;;9.50;1.40;;;;;;;;;;5053748;28;20157;-58
2021/01/04 12:43:38;;;;;;;10.25;2.50;;;;;;;;;;5055117;28;20032;-59
2021/01/04 12:46:05;;;;;;;7.80;1.52;;;;;;;;;;5057123;28;20029;-58
2021/01/04 12:48:32;;;;;;;7.40;1.50;;;;;;;;;;5061362;28;20048;-58
2021/01/04 12:50:58;;;;;;;8.48;1.65;;;;;;;;;;5066568;28;20029;-58
2021/01/04 12:53:24;;;;;;;7.78;1.30;;;;;;;;;;5068194;28;20036;-58
2021/01/04 12:55:50;;;;;;;8.05;1.73;;;;;;;;;;5067784;28;20021;-58
2021/01/04 12:58:18;;;;;;;9.43;1.58;;;;;;;;;;5066811;28;20025;-58
2021/01/04 13:00:45;;;;;;;6.45;1.45;;;;;;;;;;5066577;28;20174;-58
2021/01/04 13:03:12;;;;;;;10.10;1.58;;;;;;;;;;5068211;28;20043;-57
2021/01/04 13:05:38;;;;;;;9.07;1.75;;;;;;;;;;5069405;28;20082;-58
2021/01/04 13:08:04;;;;;;;9.90;2.50;;;;;;;;;;5059774;28;20036;-58
2021/01/04 13:10:30;;;;;;;10.32;1.95;;;;;;;;;;5065931;28;20460;-58
2021/01/04 13:12:57;;;;;;;8.55;1.63;;;;;;;;;;5063120;28;20051;-58
2021/01/04 13:15:23;;;;;;;13.60;1.88;;;;;;;;;;5058791;28;20512;-59
2021/01/04 13:17:49;;;;;;;5.60;1.33;;;;;;;;;;5063121;28;20440;-59
2021/01/04 13:20:15;;;;;;;7.07;1.40;;;;;;;;;;5064149;28;20120;-59
2021/01/04 13:22:41;;;;;;;10.98;1.60;;;;;;;;;;5065448;28;20516;-59
2021/01/04 13:25:08;;;;;;;7.80;1.45;;;;;;;;;;5066639;28;20027;-59
2021/01/04 13:27:35;;;;;;;6.50;1.52;;;;;;;;;;5065768;28;20095;-65
2021/01/04 13:30:01;;;;;;;12.30;1.80;;;;;;;;;;5062908;28;20493;-67
2021/01/04 13:32:27;;;;;;;7.75;1.92;;;;;;;;;;5066142;28;20489;-67
2021/01/04 13:34:53;;;;;;;14.40;2.42;;;;;;;;;;5063006;28;20017;-65
2021/01/04 13:37:19;;;;;;;7.60;1.85;;;;;;;;;;5065452;28;20034;-66
2021/01/04 13:39:46;;;;;;;12.25;2.65;;;;;;;;;;5062044;28;20107;-66
2021/01/04 13:42:12;;;;;;;7.88;1.48;;;;;;;;;;5067188;28;20028;-65
2021/01/04 13:44:40;;;;;;;12.20;1.80;;;;;;;;;;5063206;28;20021;-66
2021/01/04 13:47:07;;;;;;;8.48;1.45;;;;;;;;;;5065302;28;20036;-66
2021/01/04 13:49:33;;;;;;;9.40;1.95;;;;;;;;;;5062158;28;20064;-66
2021/01/04 13:52:00;;;;;;;9.43;2.22;;;;;;;;;;5064193;28;20451;-65
2021/01/04 13:54:26;;;;;;;9.88;2.00;;;;;;;;;;5064196;28;20603;-64
2021/01/04 13:56:53;;;;;;;9.45;1.95;;;;;;;;;;5067193;28;20056;-64
2021/01/04 13:59:20;;;;;;;8.15;1.45;;;;;;;;;;5061715;28;20028;-64
2021/01/04 14:01:46;;;;;;;8.13;1.63;;;;;;;;;;5066825;28;20067;-65
2021/01/04 14:04:13;;;;;;;8.02;1.45;;;;;;;;;;5063113;28;20099;-64
2021/01/04 14:06:41;;;;;;;12.35;2.45;;;;;;;;;;5062519;28;20031;-62
2021/01/04 14:09:08;;;;;;;7.78;2.20;;;;;;;;;;5061562;28;20024;-64
2021/01/04 14:11:34;;;;;;;4.63;1.38;;;;;;;;;;5061021;28;20028;-63
2021/01/04 14:14:01;;;;;;;13.05;1.77;;;;;;;;;;5064172;28;20043;-64
2021/01/04 14:16:27;;;;;;;9.38;1.50;;;;;;;;;;5069764;28;20028;-63
2021/01/04 14:18:54;;;;;;;6.22;1.63;;;;;;;;;;5068610;28;20071;-61
2021/01/04 14:21:22;;;;;;;6.95;1.30;;;;;;;;;;5068725;28;20119;-62
2021/01/04 14:23:48;;;;;;;11.98;2.40;;;;;;;;;;5069229;28;20099;-63
2021/01/04 14:26:27;;;;;;;8.05;1.98;;;;;;;;;;5068669;28;20087;-62
2021/01/04 14:28:53;;;;;;;8.60;2.10;;;;;;;;;;5068778;28;20039;-62
2021/01/04 14:31:19;;;;;;;6.85;1.50;;;;;;;;;;5065954;28;20642;-62
2021/01/04 14:33:46;;;;;;;9.15;2.40;;;;;;;;;;5070096;28;20033;-63
2021/01/04 14:36:12;;;;;;;14.00;2.80;;;;;;;;;;5070708;28;20385;-63
2021/01/04 14:38:38;;;;;;;12.57;2.13;;;;;;;;;;5065003;28;20040;-63
2021/01/04 14:41:05;;;;;;;11.75;2.60;;;;;;;;;;5065332;28;20455;-63
2021/01/04 14:43:31;;;;;;;8.52;1.73;;;;;;;;;;5068154;28;20398;-63
2021/01/04 14:45:57;;;;;;;10.00;1.45;;;;;;;;;;5065596;28;20512;-63
2021/01/04 14:48:27;;;;;;;11.02;1.85;;;;;;;;;;5069465;28;20439;-63
2021/01/04 14:50:53;;;;;;;14.07;2.47;;;;;;;;;;5070699;28;20021;-63
2021/01/04 14:53:20;;;;;;;14.90;1.67;;;;;;;;;;5070449;28;20044;-61
2021/01/04 14:55:46;;;;;;;5.97;1.85;;;;;;;;;;5068358;28;20437;-64
2021/01/04 14:58:12;;;;;;;7.18;1.25;;;;;;;;;;5059506;28;20029;-64
2021/01/04 15:00:38;;;;;;;17.60;1.73;;;;;;;;;;5061306;28;20072;-63
2021/01/04 15:03:06;;;;;;;11.43;1.33;;;;;;;;;;5066258;28;20037;-65
2021/01/04 15:05:32;;;;;;;8.90;1.33;;;;;;;;;;5068207;28;20029;-64
2021/01/04 15:07:58;;;;;;;3.95;0.73;;;;;;;;;;5067137;28;20438;-64
2021/01/04 15:10:27;;;;;;;7.10;0.88;;;;;;;;;;5057850;28;20060;-65
2021/01/04 15:12:53;;;;;;;8.95;1.02;;;;;;;;;;5067219;28;20074;-66
2021/01/04 15:15:19;;;;;;;3.28;1.00;;;;;;;;;;5062310;28;20490;-64
2021/01/04 15:17:45;;;;;;;5.32;0.70;;;;;;;;;;5058830;28;20425;-66
2021/01/04 15:20:11;;;;;;;5.03;1.13;;;;;;;;;;5064786;28;20404;-64
2021/01/04 15:22:37;;;;;;;2.92;0.50;;;;;;;;;;5064762;28;20070;-65
2021/01/04 15:25:04;;;;;;;5.45;2.72;;;;;;;;;;5069130;28;20041;-66
2021/01/04 15:27:30;;;;;;;5.47;0.80;;;;;;;;;;5066389;28;20086;-65
2021/01/04 15:29:56;;;;;;;5.00;0.73;;;;;;;;;;5066518;28;20030;-65
2021/01/04 15:32:23;;;;;;;2.97;0.80;;;;;;;;;;5068036;28;20638;-65
2021/01/04 15:34:50;;;;;;;3.83;0.50;;;;;;;;;;5067814;28;20073;-65
2021/01/04 15:37:17;;;;;;;5.00;0.70;;;;;;;;;;5065789;28;20627;-65
2021/01/04 15:39:44;;;;;;;2.97;1.17;;;;;;;;;;5067150;28;20504;-60
2021/01/04 15:42:10;;;;;;;5.20;0.68;;;;;;;;;;5067376;28;20025;-61
2021/01/04 15:44:36;;;;;;;7.43;1.13;;;;;;;;;;5068054;28;20103;-60
2021/01/04 15:47:02;;;;;;;20.75;8.30;;;;;;;;;;5069240;28;20052;-59
2021/01/04 15:49:29;;;;;;;1.60;0.70;;;;;;;;;;5069519;28;20086;-60
2021/01/04 15:51:58;;;;;;;6.88;1.10;;;;;;;;;;5067844;28;20483;-60
2021/01/04 15:54:24;;;;;;;6.05;0.60;;;;;;;;;;5068815;28;20032;-60
2021/01/04 15:56:51;;;;;;;5.10;0.65;;;;;;;;;;5067560;28;20058;-61
2021/01/04 15:59:18;;;;;;;3.33;0.88;;;;;;;;;;5069641;28;20108;-60
2021/01/04 16:01:44;;;;;;;0.93;0.77;;;;;;;;;;5068183;28;20059;-60
2021/01/04 16:04:12;;;;;;;6.95;0.90;;;;;;;;;;5065440;28;20024;-61
2021/01/04 16:06:40;;;;;;;1.30;0.47;;;;;;;;;;5062315;28;20029;-59
2021/01/04 16:09:06;;;;;;;4.13;0.70;;;;;;;;;;5058974;28;20028;-60
2021/01/04 16:11:32;;;;;;;4.38;2.55;;;;;;;;;;5054656;28;20409;-61
2021/01/04 16:13:59;;;;;;;9.02;2.67;;;;;;;;;;5058922;28;20036;-59
2021/01/04 16:16:25;;;;;;;4.85;1.58;;;;;;;;;;5055600;28;20436;-58
2021/01/04 16:18:52;;;;;;;3.30;0.82;;;;;;;;;;5056762;28;20044;-62
2021/01/04 16:21:25;;;;;;;8.02;1.17;;;;;;;;;;5055257;28;20036;-60
2021/01/04 16:23:51;;;;;;;2.70;0.90;;;;;;;;;;5054879;28;20028;-60
2021/01/04 16:26:18;;;;;;;7.53;1.00;;;;;;;;;;5057268;28;20032;-59
2021/01/04 16:28:44;;;;;;;5.90;0.90;;;;;;;;;;5057105;28;20032;-59
2021/01/04 16:31:10;;;;;;;4.20;1.00;;;;;;;;;;5063177;28;20020;-59
2021/01/04 16:33:36;;;;;;;2.53;1.02;;;;;;;;;;5058141;28;20039;-60
2021/01/04 16:36:02;;;;;;;4.85;1.65;;;;;;;;;;5057492;28;20018;-61
2021/01/04 16:38:28;;;;;;;2.42;1.23;;;;;;;;;;5058773;28;20111;-60
2021/01/04 16:40:54;;;;;;;5.38;1.08;;;;;;;;;;5058847;28;20033;-60
2021/01/04 16:43:22;;;;;;;9.38;1.38;;;;;;;;;;5063268;28;20029;-59
2021/01/04 16:45:49;;;;;;;7.05;2.05;;;;;;;;;;5060463;28;20074;-59
2021/01/04 16:48:16;;;;;;;6.53;1.60;;;;;;;;;;5060693;28;20036;-59
2021/01/04 16:50:42;;;;;;;4.10;1.55;;;;;;;;;;5057662;28;20040;-58
2021/01/04 16:53:09;;;;;;;4.47;1.55;;;;;;;;;;5049340;28;20037;-60
2021/01/04 16:55:35;;;;;;;3.58;1.42;;;;;;;;;;5049562;28;20021;-59
2021/01/04 16:58:01;;;;;;;7.32;1.73;;;;;;;;;;5050538;28;20536;-59
2021/01/04 17:00:27;;;;;;;2.38;1.60;;;;;;;;;;5051986;28;20056;-59
2021/01/04 17:02:53;;;;;;;5.03;2.40;;;;;;;;;;5049254;28;20107;-60
2021/01/04 17:05:20;;;;;;;4.22;2.45;;;;;;;;;;5047050;28;20090;-60
2021/01/04 17:07:46;;;;;;;8.23;2.47;;;;;;;;;;5048967;28;20036;-59
2021/01/04 17:10:12;;;;;;;4.88;2.20;;;;;;;;;;5049860;28;20111;-61
2021/01/04 17:12:40;;;;;;;5.47;1.95;;;;;;;;;;5053201;28;20058;-61
2021/01/04 17:15:06;;;;;;;6.75;2.38;;;;;;;;;;5053382;28;20566;-61
2021/01/04 17:17:32;;;;;;;6.95;2.30;;;;;;;;;;5066700;28;20054;-60
2021/01/04 17:19:59;;;;;;;8.38;2.03;;;;;;;;;;5064985;28;20025;-60
2021/01/04 17:22:25;;;;;;;4.43;1.63;;;;;;;;;;5068910;28;20037;-60
2021/01/04 17:24:51;;;;;;;5.03;1.80;;;;;;;;;;5067343;28;20448;-61
2021/01/04 17:27:17;;;;;;;8.40;2.13;;;;;;;;;;5066513;28;20027;-61
2021/01/04 17:29:43;;;;;;;8.00;2.10;;;;;;;;;;5066908;28;20508;-60
2021/01/04 17:32:09;;;;;;;8.77;2.15;;;;;;;;;;5066956;28;20033;-61
2021/01/04 17:34:35;;;;;;;7.93;2.85;;;;;;;;;;5069333;28;20016;-60
2021/01/04 17:37:01;;;;;;;9.00;3.10;;;;;;;;;;5065817;28;20111;-60
2021/01/04 17:39:27;;;;;;;15.52;2.75;;;;;;;;;;5067455;28;20389;-60
2021/01/04 17:42:01;;;;;;;5.63;2.58;;;;;;;;;;5065454;28;20106;-60
2021/01/04 17:44:29;;;;;;;9.43;3.15;;;;;;;;;;5066941;28;20035;-59
2021/01/04 17:47:02;;;;;;;7.95;2.90;;;;;;;;;;5066510;28;20028;-60
2021/01/04 17:49:28;;;;;;;10.43;3.75;;;;;;;;;;5068507;28;20024;-61
2021/01/04 17:51:54;;;;;;;8.50;3.30;;;;;;;;;;5067032;28;20439;-60
2021/01/04 17:54:20;;;;;;;11.70;3.50;;;;;;;;;;5066434;28;20081;-61
2021/01/04 17:56:48;;;;;;;13.25;3.92;;;;;;;;;;5066663;28;20020;-61
2021/01/04 17:59:15;;;;;;;11.93;3.80;;;;;;;;;;5067114;28;20043;-60
2021/01/04 18:01:41;;;;;;;12.35;5.40;;;;;;;;;;5067763;28;20420;-61
2021/01/04 18:04:07;;;;;;;12.13;4.47;;;;;;;;;;5068496;28;20039;-60
2021/01/04 18:06:33;;;;;;;12.25;4.43;;;;;;;;;;5067193;28;20028;-60
2021/01/04 18:09:00;;;;;;;12.15;5.03;;;;;;;;;;5066974;28;20024;-59
2021/01/04 18:11:30;;;;;;;10.73;4.53;;;;;;;;;;5065422;28;20781;-60
2021/01/04 18:13:57;;;;;;;9.55;4.93;;;;;;;;;;5066150;28;20111;-61
2021/01/04 18:16:23;;;;;;;10.55;5.15;;;;;;;;;;5068709;28;20036;-61
2021/01/04 18:18:51;;;;;;;9.38;5.07;;;;;;;;;;5068904;28;20052;-61
2021/01/04 18:21:22;;;;;;;8.25;4.22;;;;;;;;;;5067069;28;20036;-60
2021/01/04 18:23:52;;;;;;;14.88;4.60;;;;;;;;;;5068136;28;20027;-61
2021/01/04 18:26:19;;;;;;;10.02;4.20;;;;;;;;;;5068508;28;20020;-60
2021/01/04 18:28:46;;;;;;;11.90;4.47;;;;;;;;;;5069774;28;20075;-59
2021/01/04 18:31:19;;;;;;;7.80;5.70;;;;;;;;;;5069968;28;20052;-61
2021/01/04 18:33:45;;;;;;;7.75;5.60;;;;;;;;;;5067984;28;20032;-61
2021/01/04 18:36:13;;;;;;;11.55;4.68;;;;;;;;;;5067974;28;20082;-61
2021/01/04 18:38:40;;;;;;;11.57;4.22;;;;;;;;;;5068769;28;20032;-61
2021/01/04 18:41:06;;;;;;;10.52;5.18;;;;;;;;;;5062428;28;20545;-60
2021/01/04 18:43:32;;;;;;;11.05;4.68;;;;;;;;;;5069330;28;20038;-61
2021/01/04 18:45:58;;;;;;;18.00;5.88;;;;;;;;;;5067927;28;20021;-61
2021/01/04 18:48:24;;;;;;;7.60;4.68;;;;;;;;;;5068010;28;20482;-59
2021/01/04 18:50:50;;;;;;;9.77;5.03;;;;;;;;;;5067121;28;20078;-61
2021/01/04 18:53:17;;;;;;;10.35;4.53;;;;;;;;;;5068910;28;20033;-62
2021/01/04 18:55:45;;;;;;;13.60;4.63;;;;;;;;;;5068914;28;20052;-60
2021/01/04 18:58:11;;;;;;;13.68;5.03;;;;;;;;;;5069415;28;20052;-61
2021/01/04 19:00:37;;;;;;;15.45;10.38;;;;;;;;;;5072561;28;20155;-60
2021/01/04 19:03:03;;;;;;;7.22;4.05;;;;;;;;;;5071122;28;20036;-61
2021/01/04 19:05:30;;;;;;;10.77;5.60;;;;;;;;;;5072183;28;20036;-61
2021/01/04 19:07:56;;;;;;;8.13;5.00;;;;;;;;;;5072253;28;20047;-60
2021/01/04 19:10:22;;;;;;;10.23;5.70;;;;;;;;;;5071870;28;20437;-57
2021/01/04 19:12:48;;;;;;;9.20;5.72;;;;;;;;;;5064555;28;20520;-60
2021/01/04 19:15:14;;;;;;;11.77;6.70;;;;;;;;;;5064679;28;20040;-60
2021/01/04 19:17:41;;;;;;;10.48;5.57;;;;;;;;;;5068590;28;20021;-60
2021/01/04 19:20:07;;;;;;;10.55;6.25;;;;;;;;;;5071655;28;20099;-60
2021/01/04 19:22:35;;;;;;;8.82;6.18;;;;;;;;;;5072637;28;20038;-57
2021/01/04 19:25:01;;;;;;;12.23;5.47;;;;;;;;;;5068762;28;20516;-59
2021/01/04 19:27:28;;;;;;;8.95;5.70;;;;;;;;;;5070963;28;20021;-59
2021/01/04 19:29:54;;;;;;;11.63;6.13;;;;;;;;;;5070142;28;20494;-60
2021/01/04 19:32:20;;;;;;;12.05;5.93;;;;;;;;;;5071329;28;20577;-60
2021/01/04 19:34:46;;;;;;;12.95;6.85;;;;;;;;;;5065573;28;20383;-58
2021/01/04 19:37:15;;;;;;;12.65;7.32;;;;;;;;;;5071424;28;20062;-60
2021/01/04 19:39:42;;;;;;;10.32;7.18;;;;;;;;;;5069093;28;20039;-60
2021/01/04 19:42:13;;;;;;;14.00;6.68;;;;;;;;;;5071048;28;20052;-58
2021/01/04 19:44:40;;;;;;;8.85;5.13;;;;;;;;;;5067382;28;20078;-61
2021/01/04 19:47:06;;;;;;;13.02;6.20;;;;;;;;;;5059982;28;20415;-59
2021/01/04 19:49:33;;;;;;;10.05;4.80;;;;;;;;;;5070155;28;20033;-59
2021/01/04 19:51:59;;;;;;;9.57;6.10;;;;;;;;;;5067784;28;20047;-61
2021/01/04 19:54:25;;;;;;;10.13;4.93;;;;;;;;;;5068500;28;20039;-59
2021/01/04 19:56:55;;;;;;;10.60;5.43;;;;;;;;;;5067963;28;20028;-60
2021/01/04 19:59:23;;;;;;;11.07;5.75;;;;;;;;;;5068767;28;20020;-61
2021/01/04 20:01:50;;;;;;;11.68;7.13;;;;;;;;;;5069006;28;20413;-62
2021/01/04 20:04:16;;;;;;;12.13;6.80;;;;;;;;;;5070658;28;20123;-60
2021/01/04 20:06:44;;;;;;;16.55;7.40;;;;;;;;;;5068814;28;20065;-60
2021/01/04 20:09:11;;;;;;;10.70;6.50;;;;;;;;;;5068228;28;20024;-59
2021/01/04 20:11:38;;;;;;;10.80;6.07;;;;;;;;;;5066661;28;20036;-59
2021/01/04 20:14:04;;;;;;;10.30;6.18;;;;;;;;;;5068666;28;20027;-61
2021/01/04 20:16:30;;;;;;;10.27;5.57;;;;;;;;;;5069552;28;20047;-62
2021/01/04 20:18:57;;;;;;;17.08;7.47;;;;;;;;;;5067457;28;20060;-61
2021/01/04 20:21:25;;;;;;;16.13;8.65;;;;;;;;;;5067676;28;20454;-60
2021/01/04 20:23:52;;;;;;;11.18;7.80;;;;;;;;;;5065056;28;20040;-60
2021/01/04 20:26:28;;;;;;;11.95;7.68;;;;;;;;;;5066427;28;20025;-61
2021/01/04 20:28:54;;;;;;;12.40;7.63;;;;;;;;;;5066896;28;20132;-59
2021/01/04 20:31:20;;;;;;;13.27;8.02;;;;;;;;;;5068436;28;20462;-60
2021/01/04 20:33:47;;;;;;;12.80;7.95;;;;;;;;;;5066878;28;20118;-60
2021/01/04 20:36:14;;;;;;;14.38;9.68;;;;;;;;;;5066583;28;20021;-67
2021/01/04 20:38:40;;;;;;;17.48;9.30;;;;;;;;;;5065151;28;20406;-67
2021/01/04 20:41:09;;;;;;;15.68;9.27;;;;;;;;;;5066976;28;20041;-67